sensor_id;sensor_type;location;lat;lon;timestamp;pressure;altitude;pressure_sealevel;temperature;humidity
30618;BME280;17384;51.214;9.202;2024-01-06T00:00:18;97304.25;;;4.06;92.34
30618;BME280;17384;51.214;9.202;2024-01-06T00:02:43;97296.00;;;4.08;92.63
30618;BME280;17384;51.214;9.202;2024-01-06T00:05:09;97302.19;;;4.02;92.79
30618;BME280;17384;51.214;9.202;2024-01-06T00:07:34;97304.69;;;3.97;93.06
30618;BME280;17384;51.214;9.202;2024-01-06T00:09:59;97317.47;;;4.01;93.11
30618;BME280;17384;51.214;9.202;2024-01-06T00:12:25;97311.06;;;4.02;93.13
30618;BME280;17384;51.214;9.202;2024-01-06T00:14:50;97317.28;;;3.90;93.62
30618;BME280;17384;51.214;9.202;2024-01-06T00:17:15;97311.22;;;4.14;92.61
30618;BME280;17384;51.214;9.202;2024-01-06T00:19:41;97300.94;;;4.04;92.73
30618;BME280;17384;51.214;9.202;2024-01-06T00:22:06;97301.72;;;4.18;92.39
30618;BME280;17384;51.214;9.202;2024-01-06T00:24:31;97297.66;;;3.96;92.94
30618;BME280;17384;51.214;9.202;2024-01-06T00:26:57;97307.28;;;4.23;92.22
30618;BME280;17384;51.214;9.202;2024-01-06T00:29:22;97300.91;;;4.11;91.50
30618;BME280;17384;51.214;9.202;2024-01-06T00:31:47;97321.94;;;4.14;91.83
30618;BME280;17384;51.214;9.202;2024-01-06T00:34:13;97320.09;;;4.21;91.77
30618;BME280;17384;51.214;9.202;2024-01-06T00:36:38;97329.38;;;4.19;92.00
30618;BME280;17384;51.214;9.202;2024-01-06T00:39:03;97321.75;;;4.16;92.20
30618;BME280;17384;51.214;9.202;2024-01-06T00:41:29;97307.53;;;4.08;92.44
30618;BME280;17384;51.214;9.202;2024-01-06T00:43:55;97319.72;;;4.04;92.86
30618;BME280;17384;51.214;9.202;2024-01-06T00:46:20;97319.72;;;4.04;92.85
30618;BME280;17384;51.214;9.202;2024-01-06T00:48:45;97324.28;;;4.04;92.79
30618;BME280;17384;51.214;9.202;2024-01-06T00:51:11;97326.75;;;3.99;92.92
30618;BME280;17384;51.214;9.202;2024-01-06T00:53:36;97321.81;;;3.96;93.11
30618;BME280;17384;51.214;9.202;2024-01-06T00:56:01;97331.31;;;3.92;93.19
30618;BME280;17384;51.214;9.202;2024-01-06T00:58:27;97327.19;;;3.89;93.25
30618;BME280;17384;51.214;9.202;2024-01-06T01:00:53;97329.91;;;3.83;93.16
30618;BME280;17384;51.214;9.202;2024-01-06T01:03:18;97340.38;;;3.84;93.46
30618;BME280;17384;51.214;9.202;2024-01-06T01:05:43;97337.94;;;3.76;93.48
30618;BME280;17384;51.214;9.202;2024-01-06T01:08:09;97333.19;;;3.65;93.82
30618;BME280;17384;51.214;9.202;2024-01-06T01:10:34;97340.84;;;3.61;94.26
30618;BME280;17384;51.214;9.202;2024-01-06T01:12:59;97359.00;;;3.46;94.78
30618;BME280;17384;51.214;9.202;2024-01-06T01:15:25;97361.88;;;3.25;95.16
30618;BME280;17384;51.214;9.202;2024-01-06T01:17:50;97353.41;;;3.21;95.79
30618;BME280;17384;51.214;9.202;2024-01-06T01:20:15;97372.78;;;3.17;96.20
30618;BME280;17384;51.214;9.202;2024-01-06T01:22:40;97369.69;;;3.13;96.37
30618;BME280;17384;51.214;9.202;2024-01-06T01:25:06;97367.00;;;3.20;96.36
30618;BME280;17384;51.214;9.202;2024-01-06T01:27:35;97371.16;;;3.22;95.91
30618;BME280;17384;51.214;9.202;2024-01-06T01:30:01;97357.75;;;3.35;95.67
30618;BME280;17384;51.214;9.202;2024-01-06T01:32:26;97366.00;;;3.34;95.30
30618;BME280;17384;51.214;9.202;2024-01-06T01:34:51;97364.53;;;3.18;95.97
30618;BME280;17384;51.214;9.202;2024-01-06T01:37:17;97377.50;;;3.15;96.81
30618;BME280;17384;51.214;9.202;2024-01-06T01:39:42;97362.25;;;3.15;97.41
30618;BME280;17384;51.214;9.202;2024-01-06T01:42:07;97381.66;;;3.37;96.80
30618;BME280;17384;51.214;9.202;2024-01-06T01:44:33;97380.22;;;3.34;96.59
30618;BME280;17384;51.214;9.202;2024-01-06T01:46:58;97369.50;;;3.28;96.16
30618;BME280;17384;51.214;9.202;2024-01-06T01:49:25;97381.81;;;3.02;96.64
30618;BME280;17384;51.214;9.202;2024-01-06T01:51:50;97381.38;;;2.92;97.23
30618;BME280;17384;51.214;9.202;2024-01-06T01:54:16;97370.66;;;2.86;97.35
30618;BME280;17384;51.214;9.202;2024-01-06T01:56:42;97375.59;;;2.82;97.85
30618;BME280;17384;51.214;9.202;2024-01-06T01:59:11;97372.06;;;2.82;97.92
30618;BME280;17384;51.214;9.202;2024-01-06T02:01:36;97368.34;;;2.76;98.22
30618;BME280;17384;51.214;9.202;2024-01-06T02:04:02;97370.19;;;2.69;98.61
30618;BME280;17384;51.214;9.202;2024-01-06T02:06:27;97375.16;;;2.72;98.77
30618;BME280;17384;51.214;9.202;2024-01-06T02:08:53;97370.41;;;2.67;98.96
30618;BME280;17384;51.214;9.202;2024-01-06T02:11:18;97381.75;;;2.69;99.27
30618;BME280;17384;51.214;9.202;2024-01-06T02:13:43;97387.28;;;2.68;99.45
30618;BME280;17384;51.214;9.202;2024-01-06T02:16:09;97374.69;;;2.62;99.64
30618;BME280;17384;51.214;9.202;2024-01-06T02:18:34;97380.53;;;2.85;98.93
30618;BME280;17384;51.214;9.202;2024-01-06T02:21:00;97375.75;;;2.67;98.82
30618;BME280;17384;51.214;9.202;2024-01-06T02:23:26;97388.13;;;2.68;98.84
30618;BME280;17384;51.214;9.202;2024-01-06T02:25:51;97393.59;;;2.54;99.14
30618;BME280;17384;51.214;9.202;2024-01-06T02:28:16;97398.31;;;2.52;99.94
30618;BME280;17384;51.214;9.202;2024-01-06T02:30:42;97391.94;;;2.53;99.88
30618;BME280;17384;51.214;9.202;2024-01-06T02:33:08;97393.34;;;2.42;100.00
30618;BME280;17384;51.214;9.202;2024-01-06T02:35:33;97404.25;;;2.41;100.00
30618;BME280;17384;51.214;9.202;2024-01-06T02:37:58;97408.47;;;2.63;100.00
30618;BME280;17384;51.214;9.202;2024-01-06T02:40:23;97397.81;;;2.69;100.00
30618;BME280;17384;51.214;9.202;2024-01-06T02:42:49;97400.16;;;2.45;100.00
30618;BME280;17384;51.214;9.202;2024-01-06T02:45:14;97405.72;;;2.50;100.00
30618;BME280;17384;51.214;9.202;2024-01-06T02:47:39;97404.28;;;2.47;100.00
30618;BME280;17384;51.214;9.202;2024-01-06T02:50:05;97408.84;;;2.53;100.00
30618;BME280;17384;51.214;9.202;2024-01-06T02:52:30;97414.97;;;2.47;100.00
30618;BME280;17384;51.214;9.202;2024-01-06T02:54:56;97425.13;;;2.17;100.00
30618;BME280;17384;51.214;9.202;2024-01-06T02:57:21;97419.41;;;2.27;100.00
30618;BME280;17384;51.214;9.202;2024-01-06T02:59:46;97409.69;;;2.19;100.00
30618;BME280;17384;51.214;9.202;2024-01-06T03:02:12;97412.72;;;2.10;100.00
30618;BME280;17384;51.214;9.202;2024-01-06T03:04:37;97407.25;;;1.90;100.00
30618;BME280;17384;51.214;9.202;2024-01-06T03:07:02;97416.13;;;1.97;100.00
30618;BME280;17384;51.214;9.202;2024-01-06T03:09:28;97422.53;;;2.02;100.00
30618;BME280;17384;51.214;9.202;2024-01-06T03:11:53;97425.06;;;2.11;100.00
30618;BME280;17384;51.214;9.202;2024-01-06T03:14:19;97425.91;;;2.11;100.00
30618;BME280;17384;51.214;9.202;2024-01-06T03:16:44;97424.38;;;2.02;100.00
30618;BME280;17384;51.214;9.202;2024-01-06T03:19:09;97421.53;;;2.03;100.00
30618;BME280;17384;51.214;9.202;2024-01-06T03:21:34;97430.22;;;2.12;100.00
30618;BME280;17384;51.214;9.202;2024-01-06T03:24:00;97424.72;;;2.20;100.00
30618;BME280;17384;51.214;9.202;2024-01-06T03:26:25;97421.84;;;2.22;100.00
30618;BME280;17384;51.214;9.202;2024-01-06T03:28:50;97430.94;;;2.27;100.00
30618;BME280;17384;51.214;9.202;2024-01-06T03:31:16;97426.84;;;2.31;100.00
30618;BME280;17384;51.214;9.202;2024-01-06T03:33:42;97431.16;;;2.32;100.00
30618;BME280;17384;51.214;9.202;2024-01-06T03:36:07;97443.34;;;2.35;100.00
30618;BME280;17384;51.214;9.202;2024-01-06T03:38:33;97445.22;;;2.41;100.00
30618;BME280;17384;51.214;9.202;2024-01-06T03:40:58;97453.69;;;2.45;100.00
30618;BME280;17384;51.214;9.202;2024-01-06T03:43:24;97449.19;;;2.52;100.00
30618;BME280;17384;51.214;9.202;2024-01-06T03:45:49;97454.53;;;2.52;100.00
30618;BME280;17384;51.214;9.202;2024-01-06T03:48:14;97448.78;;;2.55;100.00
30618;BME280;17384;51.214;9.202;2024-01-06T03:50:40;97457.25;;;2.58;100.00
30618;BME280;17384;51.214;9.202;2024-01-06T03:53:05;97458.56;;;2.69;100.00
30618;BME280;17384;51.214;9.202;2024-01-06T03:55:30;97471.56;;;2.72;100.00
30618;BME280;17384;51.214;9.202;2024-01-06T03:57:56;97476.88;;;2.65;100.00
30618;BME280;17384;51.214;9.202;2024-01-06T04:00:21;97463.66;;;2.64;100.00
30618;BME280;17384;51.214;9.202;2024-01-06T04:02:46;97471.13;;;2.75;100.00
30618;BME280;17384;51.214;9.202;2024-01-06T04:05:12;97475.66;;;2.75;100.00
30618;BME280;17384;51.214;9.202;2024-01-06T04:07:37;97462.25;;;2.68;100.00
30618;BME280;17384;51.214;9.202;2024-01-06T04:10:03;97471.47;;;2.59;100.00
30618;BME280;17384;51.214;9.202;2024-01-06T04:12:28;97473.91;;;2.54;100.00
30618;BME280;17384;51.214;9.202;2024-01-06T04:14:54;97468.78;;;2.59;100.00
30618;BME280;17384;51.214;9.202;2024-01-06T04:17:19;97476.88;;;2.65;100.00
30618;BME280;17384;51.214;9.202;2024-01-06T04:19:44;97466.41;;;2.70;100.00
30618;BME280;17384;51.214;9.202;2024-01-06T04:22:10;97474.09;;;2.93;100.00
30618;BME280;17384;51.214;9.202;2024-01-06T04:24:35;97461.38;;;3.09;100.00
30618;BME280;17384;51.214;9.202;2024-01-06T04:27:03;97463.63;;;2.98;100.00
30618;BME280;17384;51.214;9.202;2024-01-06T04:29:28;97469.19;;;3.03;100.00
30618;BME280;17384;51.214;9.202;2024-01-06T04:31:54;97474.34;;;3.05;100.00
30618;BME280;17384;51.214;9.202;2024-01-06T04:34:19;97472.50;;;3.05;100.00
30618;BME280;17384;51.214;9.202;2024-01-06T04:36:44;97479.75;;;3.18;100.00
30618;BME280;17384;51.214;9.202;2024-01-06T04:39:10;97472.91;;;3.09;100.00
30618;BME280;17384;51.214;9.202;2024-01-06T04:41:36;97479.06;;;3.03;100.00
30618;BME280;17384;51.214;9.202;2024-01-06T04:44:01;97479.69;;;3.05;100.00
30618;BME280;17384;51.214;9.202;2024-01-06T04:46:26;97481.34;;;3.06;100.00
30618;BME280;17384;51.214;9.202;2024-01-06T04:48:52;97481.13;;;3.01;100.00
30618;BME280;17384;51.214;9.202;2024-01-06T04:51:17;97478.88;;;2.98;100.00
30618;BME280;17384;51.214;9.202;2024-01-06T04:53:42;97480.94;;;3.02;100.00
30618;BME280;17384;51.214;9.202;2024-01-06T04:56:08;97494.34;;;3.09;100.00
30618;BME280;17384;51.214;9.202;2024-01-06T04:58:33;97491.69;;;3.09;100.00
30618;BME280;17384;51.214;9.202;2024-01-06T05:00:59;97504.34;;;3.35;100.00
30618;BME280;17384;51.214;9.202;2024-01-06T05:03:25;97497.34;;;3.40;100.00
30618;BME280;17384;51.214;9.202;2024-01-06T05:05:50;97499.59;;;3.37;100.00
30618;BME280;17384;51.214;9.202;2024-01-06T05:08:15;97511.56;;;3.28;100.00
30618;BME280;17384;51.214;9.202;2024-01-06T05:10:43;97496.25;;;3.15;100.00
30618;BME280;17384;51.214;9.202;2024-01-06T05:13:09;97498.88;;;3.09;100.00
30618;BME280;17384;51.214;9.202;2024-01-06T05:15:34;97497.22;;;3.08;100.00
30618;BME280;17384;51.214;9.202;2024-01-06T05:18:00;97500.00;;;3.27;100.00
30618;BME280;17384;51.214;9.202;2024-01-06T05:20:25;97502.06;;;3.32;100.00
30618;BME280;17384;51.214;9.202;2024-01-06T05:22:50;97493.16;;;3.18;100.00
30618;BME280;17384;51.214;9.202;2024-01-06T05:25:16;97509.28;;;3.38;100.00
30618;BME280;17384;51.214;9.202;2024-01-06T05:27:41;97496.72;;;3.38;100.00
30618;BME280;17384;51.214;9.202;2024-01-06T05:30:06;97503.50;;;3.34;100.00
30618;BME280;17384;51.214;9.202;2024-01-06T05:32:33;97497.53;;;3.32;100.00
30618;BME280;17384;51.214;9.202;2024-01-06T05:34:58;97507.00;;;3.22;100.00
30618;BME280;17384;51.214;9.202;2024-01-06T05:37:23;97506.13;;;3.15;100.00
30618;BME280;17384;51.214;9.202;2024-01-06T05:39:49;97513.75;;;3.11;100.00
30618;BME280;17384;51.214;9.202;2024-01-06T05:42:14;97506.25;;;2.93;100.00
30618;BME280;17384;51.214;9.202;2024-01-06T05:44:42;97511.81;;;2.92;100.00
30618;BME280;17384;51.214;9.202;2024-01-06T05:47:07;97509.28;;;2.84;100.00
30618;BME280;17384;51.214;9.202;2024-01-06T05:49:33;97521.47;;;2.86;100.00
30618;BME280;17384;51.214;9.202;2024-01-06T05:51:58;97518.59;;;2.88;100.00
30618;BME280;17384;51.214;9.202;2024-01-06T05:54:24;97508.31;;;2.91;100.00
30618;BME280;17384;51.214;9.202;2024-01-06T05:56:49;97510.34;;;2.89;100.00
30618;BME280;17384;51.214;9.202;2024-01-06T05:59:14;97519.66;;;2.93;100.00
30618;BME280;17384;51.214;9.202;2024-01-06T06:01:40;97518.88;;;3.06;100.00
30618;BME280;17384;51.214;9.202;2024-01-06T06:04:05;97525.94;;;3.20;100.00
30618;BME280;17384;51.214;9.202;2024-01-06T06:06:31;97520.19;;;3.23;100.00
30618;BME280;17384;51.214;9.202;2024-01-06T06:08:56;97532.13;;;3.21;100.00
30618;BME280;17384;51.214;9.202;2024-01-06T06:11:21;97527.41;;;3.29;100.00
30618;BME280;17384;51.214;9.202;2024-01-06T06:13:46;97537.09;;;3.30;100.00
30618;BME280;17384;51.214;9.202;2024-01-06T06:16:12;97542.66;;;3.29;100.00
30618;BME280;17384;51.214;9.202;2024-01-06T06:18:38;97540.59;;;3.24;100.00
30618;BME280;17384;51.214;9.202;2024-01-06T06:21:03;97542.66;;;3.22;100.00
30618;BME280;17384;51.214;9.202;2024-01-06T06:23:30;97557.13;;;3.28;100.00
30618;BME280;17384;51.214;9.202;2024-01-06T06:25:55;97544.34;;;3.36;100.00
30618;BME280;17384;51.214;9.202;2024-01-06T06:28:20;97562.03;;;3.31;100.00
30618;BME280;17384;51.214;9.202;2024-01-06T06:30:45;97567.38;;;3.18;100.00
30618;BME280;17384;51.214;9.202;2024-01-06T06:33:11;97559.13;;;3.19;100.00
30618;BME280;17384;51.214;9.202;2024-01-06T06:35:37;97552.59;;;3.35;100.00
30618;BME280;17384;51.214;9.202;2024-01-06T06:38:02;97557.19;;;3.48;100.00
30618;BME280;17384;51.214;9.202;2024-01-06T06:40:28;97567.41;;;3.31;100.00
30618;BME280;17384;51.214;9.202;2024-01-06T06:42:54;97566.03;;;3.42;100.00
30618;BME280;17384;51.214;9.202;2024-01-06T06:45:19;97567.63;;;3.36;100.00
30618;BME280;17384;51.214;9.202;2024-01-06T06:47:47;97580.41;;;3.34;100.00
30618;BME280;17384;51.214;9.202;2024-01-06T06:50:13;97564.97;;;3.36;100.00
30618;BME280;17384;51.214;9.202;2024-01-06T06:52:38;97579.47;;;3.48;100.00
30618;BME280;17384;51.214;9.202;2024-01-06T06:55:03;97585.25;;;3.52;100.00
30618;BME280;17384;51.214;9.202;2024-01-06T06:57:29;97581.94;;;3.50;100.00
30618;BME280;17384;51.214;9.202;2024-01-06T06:59:54;97582.13;;;3.48;100.00
30618;BME280;17384;51.214;9.202;2024-01-06T07:02:19;97588.09;;;3.44;100.00
30618;BME280;17384;51.214;9.202;2024-01-06T07:04:45;97592.63;;;3.43;100.00
30618;BME280;17384;51.214;9.202;2024-01-06T07:07:10;97591.91;;;3.69;100.00
30618;BME280;17384;51.214;9.202;2024-01-06T07:09:35;97604.25;;;3.63;100.00
30618;BME280;17384;51.214;9.202;2024-01-06T07:12:00;97605.03;;;3.57;100.00
30618;BME280;17384;51.214;9.202;2024-01-06T07:14:26;97597.47;;;3.67;100.00
30618;BME280;17384;51.214;9.202;2024-01-06T07:16:51;97608.09;;;4.15;100.00
30618;BME280;17384;51.214;9.202;2024-01-06T07:19:16;97622.78;;;4.72;100.00
30618;BME280;17384;51.214;9.202;2024-01-06T07:21:42;97622.16;;;4.96;100.00
30618;BME280;17384;51.214;9.202;2024-01-06T07:24:07;97616.38;;;4.86;100.00
30618;BME280;17384;51.214;9.202;2024-01-06T07:26:33;97620.53;;;4.89;100.00
30618;BME280;17384;51.214;9.202;2024-01-06T07:28:58;97617.84;;;4.82;100.00
30618;BME280;17384;51.214;9.202;2024-01-06T07:31:23;97620.09;;;4.85;100.00
30618;BME280;17384;51.214;9.202;2024-01-06T07:33:48;97640.13;;;5.02;100.00
30618;BME280;17384;51.214;9.202;2024-01-06T07:36:14;97635.00;;;4.81;100.00
30618;BME280;17384;51.214;9.202;2024-01-06T07:38:39;97643.88;;;4.55;100.00
30618;BME280;17384;51.214;9.202;2024-01-06T07:41:06;97654.78;;;4.21;98.99
30618;BME280;17384;51.214;9.202;2024-01-06T07:43:31;97647.50;;;4.01;99.91
30618;BME280;17384;51.214;9.202;2024-01-06T07:45:56;97643.13;;;3.94;100.00
30618;BME280;17384;51.214;9.202;2024-01-06T07:48:22;97661.81;;;4.41;100.00
30618;BME280;17384;51.214;9.202;2024-01-06T07:50:47;97659.34;;;4.47;100.00
30618;BME280;17384;51.214;9.202;2024-01-06T07:53:12;97653.94;;;4.07;100.00
30618;BME280;17384;51.214;9.202;2024-01-06T07:55:39;97655.16;;;4.04;100.00
30618;BME280;17384;51.214;9.202;2024-01-06T07:58:04;97663.84;;;4.20;100.00
30618;BME280;17384;51.214;9.202;2024-01-06T08:00:30;97666.22;;;3.88;100.00
30618;BME280;17384;51.214;9.202;2024-01-06T08:02:55;97671.38;;;3.83;100.00
30618;BME280;17384;51.214;9.202;2024-01-06T08:05:21;97668.69;;;3.77;100.00
30618;BME280;17384;51.214;9.202;2024-01-06T08:07:46;97679.56;;;3.68;100.00
30618;BME280;17384;51.214;9.202;2024-01-06T08:10:11;97681.78;;;3.58;100.00
30618;BME280;17384;51.214;9.202;2024-01-06T08:12:37;97682.84;;;3.64;100.00
30618;BME280;17384;51.214;9.202;2024-01-06T08:15:02;97689.44;;;3.61;100.00
30618;BME280;17384;51.214;9.202;2024-01-06T08:17:28;97688.41;;;3.62;100.00
30618;BME280;17384;51.214;9.202;2024-01-06T08:19:53;97694.16;;;3.59;100.00
30618;BME280;17384;51.214;9.202;2024-01-06T08:22:19;97693.03;;;3.75;100.00
30618;BME280;17384;51.214;9.202;2024-01-06T08:24:44;97693.41;;;3.72;100.00
30618;BME280;17384;51.214;9.202;2024-01-06T08:27:09;97693.19;;;3.67;100.00
30618;BME280;17384;51.214;9.202;2024-01-06T08:29:35;97693.22;;;3.73;100.00
30618;BME280;17384;51.214;9.202;2024-01-06T08:32:00;97710.38;;;3.86;100.00
30618;BME280;17384;51.214;9.202;2024-01-06T08:34:25;97717.41;;;3.80;100.00
30618;BME280;17384;51.214;9.202;2024-01-06T08:36:52;97727.50;;;3.78;100.00
30618;BME280;17384;51.214;9.202;2024-01-06T08:39:17;97715.69;;;3.72;100.00
30618;BME280;17384;51.214;9.202;2024-01-06T08:41:42;97724.81;;;3.78;100.00
30618;BME280;17384;51.214;9.202;2024-01-06T08:44:08;97724.38;;;3.74;100.00
30618;BME280;17384;51.214;9.202;2024-01-06T08:46:33;97727.22;;;3.66;100.00
30618;BME280;17384;51.214;9.202;2024-01-06T08:48:58;97730.53;;;3.68;100.00
30618;BME280;17384;51.214;9.202;2024-01-06T08:51:25;97741.94;;;3.77;100.00
30618;BME280;17384;51.214;9.202;2024-01-06T08:53:51;97739.06;;;3.79;100.00
30618;BME280;17384;51.214;9.202;2024-01-06T08:56:16;97738.22;;;3.85;100.00
30618;BME280;17384;51.214;9.202;2024-01-06T08:58:43;97741.97;;;3.90;100.00
30618;BME280;17384;51.214;9.202;2024-01-06T09:01:08;97747.53;;;3.89;100.00
30618;BME280;17384;51.214;9.202;2024-01-06T09:03:33;97757.50;;;3.95;100.00
30618;BME280;17384;51.214;9.202;2024-01-06T09:05:58;97753.78;;;3.96;100.00
30618;BME280;17384;51.214;9.202;2024-01-06T09:08:24;97762.63;;;3.90;100.00
30618;BME280;17384;51.214;9.202;2024-01-06T09:10:49;97770.63;;;3.83;100.00
30618;BME280;17384;51.214;9.202;2024-01-06T09:13:17;97774.34;;;3.82;100.00
30618;BME280;17384;51.214;9.202;2024-01-06T09:15:42;97773.94;;;3.79;100.00
30618;BME280;17384;51.214;9.202;2024-01-06T09:18:08;97783.00;;;3.78;100.00
30618;BME280;17384;51.214;9.202;2024-01-06T09:20:34;97789.41;;;3.83;100.00
30618;BME280;17384;51.214;9.202;2024-01-06T09:22:59;97778.91;;;3.82;100.00
30618;BME280;17384;51.214;9.202;2024-01-06T09:25:24;97789.06;;;3.93;100.00
30618;BME280;17384;51.214;9.202;2024-01-06T09:27:50;97793.63;;;3.99;100.00
30618;BME280;17384;51.214;9.202;2024-01-06T09:30:16;97780.06;;;4.07;100.00
30618;BME280;17384;51.214;9.202;2024-01-06T09:32:41;97798.47;;;4.17;100.00
30618;BME280;17384;51.214;9.202;2024-01-06T09:35:07;97798.47;;;4.17;100.00
30618;BME280;17384;51.214;9.202;2024-01-06T09:37:32;97793.69;;;4.12;100.00
30618;BME280;17384;51.214;9.202;2024-01-06T09:39:57;97792.44;;;4.08;100.00
30618;BME280;17384;51.214;9.202;2024-01-06T09:42:22;97788.63;;;3.89;100.00
30618;BME280;17384;51.214;9.202;2024-01-06T09:44:48;97800.34;;;3.82;100.00
30618;BME280;17384;51.214;9.202;2024-01-06T09:47:13;97805.50;;;3.83;100.00
30618;BME280;17384;51.214;9.202;2024-01-06T09:49:41;97795.34;;;3.72;100.00
30618;BME280;17384;51.214;9.202;2024-01-06T09:52:14;97805.44;;;3.70;100.00
30618;BME280;17384;51.214;9.202;2024-01-06T09:54:43;97816.47;;;3.82;100.00
30618;BME280;17384;51.214;9.202;2024-01-06T09:57:11;97810.66;;;3.78;100.00
30618;BME280;17384;51.214;9.202;2024-01-06T09:59:36;97821.81;;;3.82;100.00
30618;BME280;17384;51.214;9.202;2024-01-06T10:02:03;97817.78;;;3.99;100.00
30618;BME280;17384;51.214;9.202;2024-01-06T10:04:28;97824.03;;;4.13;100.00
30618;BME280;17384;51.214;9.202;2024-01-06T10:06:54;97823.19;;;4.12;100.00
30618;BME280;17384;51.214;9.202;2024-01-06T10:09:25;97824.75;;;3.93;100.00
30618;BME280;17384;51.214;9.202;2024-01-06T10:11:52;97821.78;;;3.75;100.00
30618;BME280;17384;51.214;9.202;2024-01-06T10:14:19;97827.97;;;3.76;100.00
30618;BME280;17384;51.214;9.202;2024-01-06T10:16:45;97822.59;;;3.76;100.00
30618;BME280;17384;51.214;9.202;2024-01-06T10:19:10;97832.06;;;3.71;100.00
30618;BME280;17384;51.214;9.202;2024-01-06T10:21:36;97836.44;;;3.79;100.00
30618;BME280;17384;51.214;9.202;2024-01-06T10:24:03;97830.44;;;3.77;100.00
30618;BME280;17384;51.214;9.202;2024-01-06T10:26:28;97830.47;;;3.84;100.00
30618;BME280;17384;51.214;9.202;2024-01-06T10:28:54;97834.22;;;3.89;100.00
30618;BME280;17384;51.214;9.202;2024-01-06T10:31:19;97827.69;;;3.98;100.00
30618;BME280;17384;51.214;9.202;2024-01-06T10:33:44;97833.88;;;3.99;100.00
30618;BME280;17384;51.214;9.202;2024-01-06T10:36:10;97836.19;;;4.02;100.00
30618;BME280;17384;51.214;9.202;2024-01-06T10:38:35;97838.03;;;4.01;100.00
30618;BME280;17384;51.214;9.202;2024-01-06T10:41:03;97842.19;;;4.04;100.00
30618;BME280;17384;51.214;9.202;2024-01-06T10:43:32;97837.19;;;4.01;100.00
30618;BME280;17384;51.214;9.202;2024-01-06T10:46:02;97839.31;;;4.12;100.00
30618;BME280;17384;51.214;9.202;2024-01-06T10:48:30;97827.38;;;4.21;100.00
30618;BME280;17384;51.214;9.202;2024-01-06T10:50:57;97840.97;;;4.13;100.00
30618;BME280;17384;51.214;9.202;2024-01-06T10:53:23;97829.84;;;4.16;100.00
30618;BME280;17384;51.214;9.202;2024-01-06T10:55:51;97847.56;;;4.11;100.00
30618;BME280;17384;51.214;9.202;2024-01-06T10:58:17;97850.88;;;4.13;100.00
30618;BME280;17384;51.214;9.202;2024-01-06T11:00:43;97846.34;;;4.13;100.00
30618;BME280;17384;51.214;9.202;2024-01-06T11:03:09;97855.25;;;4.20;100.00
30618;BME280;17384;51.214;9.202;2024-01-06T11:05:34;97852.81;;;4.25;100.00
30618;BME280;17384;51.214;9.202;2024-01-06T11:08:00;97850.97;;;4.26;100.00
30618;BME280;17384;51.214;9.202;2024-01-06T11:10:26;97853.44;;;4.27;100.00
30618;BME280;17384;51.214;9.202;2024-01-06T11:15:51;97837.72;;;4.24;100.00
30618;BME280;17384;51.214;9.202;2024-01-06T11:18:32;97850.59;;;4.35;100.00
30618;BME280;17384;51.214;9.202;2024-01-06T11:23:37;97840.16;;;4.60;100.00
30618;BME280;17384;51.214;9.202;2024-01-06T11:26:03;97851.13;;;4.65;100.00
30618;BME280;17384;51.214;9.202;2024-01-06T11:28:28;97850.72;;;4.68;100.00
30618;BME280;17384;51.214;9.202;2024-01-06T11:31:09;97848.00;;;4.55;100.00
30618;BME280;17384;51.214;9.202;2024-01-06T11:33:40;97847.41;;;4.60;100.00
30618;BME280;17384;51.214;9.202;2024-01-06T11:36:08;97838.50;;;4.66;100.00
30618;BME280;17384;51.214;9.202;2024-01-06T11:38:36;97839.38;;;4.73;100.00
30618;BME280;17384;51.214;9.202;2024-01-06T11:41:02;97844.97;;;4.78;100.00
30618;BME280;17384;51.214;9.202;2024-01-06T11:43:27;97846.84;;;4.84;100.00
30618;BME280;17384;51.214;9.202;2024-01-06T11:45:53;97846.06;;;4.90;100.00
30618;BME280;17384;51.214;9.202;2024-01-06T11:48:22;97838.19;;;4.89;100.00
30618;BME280;17384;51.214;9.202;2024-01-06T11:50:49;97835.94;;;4.92;100.00
30618;BME280;17384;51.214;9.202;2024-01-06T11:53:14;97845.41;;;4.95;100.00
30618;BME280;17384;51.214;9.202;2024-01-06T11:55:40;97832.19;;;4.93;100.00
30618;BME280;17384;51.214;9.202;2024-01-06T11:58:07;97830.75;;;4.97;100.00
30618;BME280;17384;51.214;9.202;2024-01-06T12:00:33;97838.81;;;4.91;100.00
30618;BME280;17384;51.214;9.202;2024-01-06T12:02:59;97827.25;;;4.90;100.00
30618;BME280;17384;51.214;9.202;2024-01-06T12:05:25;97831.13;;;4.81;100.00
30618;BME280;17384;51.214;9.202;2024-01-06T12:07:55;97831.97;;;4.82;100.00
30618;BME280;17384;51.214;9.202;2024-01-06T12:10:21;97835.03;;;4.72;100.00
30618;BME280;17384;51.214;9.202;2024-01-06T12:12:59;97829.44;;;4.60;100.00
30618;BME280;17384;51.214;9.202;2024-01-06T12:15:26;97833.97;;;4.60;100.00
30618;BME280;17384;51.214;9.202;2024-01-06T12:17:51;97837.28;;;4.62;100.00
30618;BME280;17384;51.214;9.202;2024-01-06T12:20:17;97823.84;;;4.62;100.00
30618;BME280;17384;51.214;9.202;2024-01-06T12:22:42;97834.59;;;4.68;100.00
30618;BME280;17384;51.214;9.202;2024-01-06T12:25:09;97824.69;;;4.62;100.00
30618;BME280;17384;51.214;9.202;2024-01-06T12:27:34;97830.03;;;4.56;100.00
30618;BME280;17384;51.214;9.202;2024-01-06T12:30:00;97832.31;;;4.59;100.00
30618;BME280;17384;51.214;9.202;2024-01-06T12:32:26;97823.41;;;4.52;100.00
30618;BME280;17384;51.214;9.202;2024-01-06T12:34:51;97835.63;;;4.61;100.00
30618;BME280;17384;51.214;9.202;2024-01-06T12:37:16;97826.50;;;4.55;100.00
30618;BME280;17384;51.214;9.202;2024-01-06T12:39:42;97844.00;;;4.45;100.00
30618;BME280;17384;51.214;9.202;2024-01-06T12:42:10;97846.75;;;4.51;100.00
30618;BME280;17384;51.214;9.202;2024-01-06T12:44:36;97845.28;;;4.49;100.00
30618;BME280;17384;51.214;9.202;2024-01-06T12:47:03;97835.94;;;4.38;100.00
30618;BME280;17384;51.214;9.202;2024-01-06T12:49:29;97849.97;;;4.33;100.00
30618;BME280;17384;51.214;9.202;2024-01-06T12:51:54;97848.13;;;4.34;100.00
30618;BME280;17384;51.214;9.202;2024-01-06T12:54:19;97848.94;;;4.34;100.00
30618;BME280;17384;51.214;9.202;2024-01-06T12:56:45;97860.16;;;4.51;100.00
30618;BME280;17384;51.214;9.202;2024-01-06T12:59:10;97857.50;;;4.58;100.00